createdAt,value
2017-09-27T00:01:51.781Z,78.90
2017-09-27T00:04:18.973Z,78.20
2017-09-27T00:06:45.417Z,78.30
2017-09-27T00:09:12.615Z,78.50
2017-09-27T00:11:39.107Z,78.50
2017-09-27T00:14:05.541Z,79.30
2017-09-27T00:16:32.093Z,79.20
2017-09-27T00:18:58.542Z,79.80
2017-09-27T00:21:24.988Z,82.20
2017-09-27T00:23:51.438Z,83.10
2017-09-27T00:26:18.629Z,85.10
2017-09-27T00:28:45.093Z,85.00
2017-09-27T00:31:11.523Z,84.90
2017-09-27T00:33:38.000Z,83.80
2017-09-27T00:36:04.489Z,82.70
2017-09-27T00:38:30.952Z,82.40
2017-09-27T00:40:58.931Z,81.70
2017-09-27T00:43:25.365Z,81.70
2017-09-27T00:45:51.825Z,81.40
2017-09-27T00:48:19.053Z,82.50
2017-09-27T00:50:46.252Z,84.00
2017-09-27T00:53:13.637Z,85.70
2017-09-27T00:55:40.906Z,85.40
2017-09-27T00:58:08.136Z,86.00
2017-09-27T01:00:34.616Z,85.30
2017-09-27T01:03:01.059Z,85.80
2017-09-27T01:05:27.612Z,86.30
2017-09-27T01:07:54.045Z,86.30
2017-09-27T01:10:20.577Z,86.20
2017-09-27T01:12:47.069Z,85.50
2017-09-27T01:15:13.528Z,85.10
2017-09-27T01:17:39.994Z,84.50
2017-09-27T01:20:06.448Z,83.90
2017-09-27T01:22:33.666Z,83.40
2017-09-27T01:25:00.167Z,83.40
2017-09-27T01:27:26.649Z,83.10
2017-09-27T01:29:53.152Z,82.80
2017-09-27T01:32:19.642Z,81.60
2017-09-27T01:34:46.093Z,81.40
2017-09-27T01:37:13.374Z,80.20
2017-09-27T01:39:39.833Z,80.20
2017-09-27T01:42:06.317Z,80.00
2017-09-27T01:44:33.562Z,80.10
2017-09-27T01:47:00.795Z,79.90
2017-09-27T01:49:27.238Z,79.80
2017-09-27T01:51:54.489Z,79.50
2017-09-27T01:54:21.706Z,80.40
2017-09-27T01:56:48.228Z,80.40
2017-09-27T01:59:14.685Z,80.00
2017-09-27T02:01:41.157Z,80.10
2017-09-27T02:04:08.404Z,80.50
2017-09-27T02:06:35.606Z,80.70
2017-09-27T02:09:02.123Z,80.80
2017-09-27T02:11:28.614Z,81.50
2017-09-27T02:13:55.033Z,81.90
2017-09-27T02:16:21.482Z,81.70
2017-09-27T02:18:48.688Z,82.50
2017-09-27T02:21:15.096Z,82.30
2017-09-27T02:23:42.286Z,82.50
2017-09-27T02:26:08.724Z,82.50
2017-09-27T02:28:35.146Z,82.80
2017-09-27T02:31:01.598Z,82.70
2017-09-27T02:33:27.999Z,82.80
2017-09-27T02:35:54.474Z,82.30
2017-09-27T02:38:21.692Z,81.30
2017-09-27T02:40:48.127Z,81.40
2017-09-27T02:43:14.563Z,80.90
2017-09-27T02:45:40.987Z,80.60
2017-09-27T02:48:08.154Z,79.90
2017-09-27T02:50:34.576Z,79.90
2017-09-27T02:53:01.010Z,79.50
2017-09-27T02:55:27.434Z,80.10
2017-09-27T02:57:53.849Z,80.30
2017-09-27T03:00:20.261Z,80.80
2017-09-27T03:02:46.714Z,80.20
2017-09-27T03:05:13.166Z,80.30
2017-09-27T03:07:39.598Z,80.40
2017-09-27T03:10:06.001Z,80.20
2017-09-27T03:12:32.476Z,80.00
2017-09-27T03:14:58.878Z,80.20
2017-09-27T03:17:25.313Z,80.00
2017-09-27T03:19:51.749Z,80.10
2017-09-27T03:22:18.930Z,80.20
2017-09-27T03:24:45.336Z,80.20
2017-09-27T03:27:11.785Z,79.90
2017-09-27T03:29:38.255Z,79.70
2017-09-27T03:32:04.686Z,80.70
2017-09-27T03:34:31.102Z,79.90
2017-09-27T03:36:57.537Z,80.40
2017-09-27T03:39:24.734Z,80.10
2017-09-27T03:41:51.897Z,80.20
2017-09-27T03:44:18.295Z,80.20
2017-09-27T03:46:44.737Z,80.00
2017-09-27T03:49:11.185Z,79.80
2017-09-27T03:51:37.626Z,80.00
2017-09-27T03:54:04.094Z,79.80
2017-09-27T03:56:30.547Z,79.60
2017-09-27T03:58:57.042Z,81.40
2017-09-27T04:01:23.466Z,81.00
2017-09-27T04:03:49.889Z,81.40
2017-09-27T04:06:16.313Z,83.20
2017-09-27T04:08:42.772Z,82.90
2017-09-27T04:11:09.221Z,82.80
2017-09-27T04:13:35.629Z,82.50
2017-09-27T04:16:02.060Z,81.50
2017-09-27T04:18:28.477Z,81.40
2017-09-27T04:20:55.633Z,80.60
2017-09-27T04:23:22.074Z,80.50
2017-09-27T04:25:48.524Z,80.60
2017-09-27T04:28:14.969Z,80.60
2017-09-27T04:30:41.388Z,80.00
2017-09-27T04:33:07.845Z,81.00
2017-09-27T04:35:34.323Z,80.90
2017-09-27T04:38:00.737Z,80.30
2017-09-27T04:40:27.214Z,80.00
2017-09-27T04:42:53.666Z,79.20
2017-09-27T04:45:20.125Z,79.90
2017-09-27T04:47:46.549Z,80.00
2017-09-27T04:50:12.982Z,79.90
2017-09-27T04:52:39.405Z,79.80
2017-09-27T04:55:05.824Z,80.00
2017-09-27T04:57:32.453Z,81.60
2017-09-27T04:59:58.925Z,83.00
2017-09-27T05:02:25.405Z,85.20
2017-09-27T05:04:51.832Z,86.00
2017-09-27T05:07:18.297Z,86.10
2017-09-27T05:09:44.732Z,86.50
2017-09-27T05:12:11.217Z,86.00
2017-09-27T05:14:37.646Z,86.40
2017-09-27T05:17:04.835Z,85.80
2017-09-27T05:19:31.352Z,85.80
2017-09-27T05:21:57.800Z,85.20
2017-09-27T05:24:24.293Z,86.30
2017-09-27T05:26:51.453Z,87.50
2017-09-27T05:29:17.872Z,87.40
2017-09-27T05:31:44.345Z,88.30
2017-09-27T05:34:10.749Z,88.80
2017-09-27T05:36:37.200Z,88.80
2017-09-27T05:39:03.678Z,88.70
2017-09-27T05:41:30.081Z,88.10
2017-09-27T05:43:56.468Z,87.50
2017-09-27T05:46:22.917Z,87.80
2017-09-27T05:48:49.404Z,87.70
2017-09-27T05:51:15.808Z,87.80
2017-09-27T05:53:42.250Z,89.00
2017-09-27T05:56:08.652Z,89.20
2017-09-27T05:58:35.065Z,89.40
2017-09-27T06:01:02.246Z,90.10
2017-09-27T06:03:29.205Z,90.10
2017-09-27T06:05:55.638Z,89.50
2017-09-27T06:08:22.094Z,89.40
2017-09-27T06:10:48.537Z,89.10
2017-09-27T06:13:14.973Z,89.10
2017-09-27T06:15:41.390Z,89.00
2017-09-27T06:18:07.812Z,88.70
2017-09-27T06:20:34.249Z,88.30
2017-09-27T06:23:00.694Z,88.00
2017-09-27T06:25:27.925Z,86.70
2017-09-27T06:27:54.361Z,86.70
2017-09-27T06:30:20.954Z,86.50
2017-09-27T06:32:48.118Z,85.60
2017-09-27T06:35:14.556Z,85.60
2017-09-27T06:37:41.131Z,84.70
2017-09-27T06:40:07.585Z,85.30
2017-09-27T06:42:34.749Z,85.60
2017-09-27T06:45:01.209Z,85.50
2017-09-27T06:47:27.674Z,85.70
2017-09-27T06:49:54.099Z,85.60
2017-09-27T06:52:20.541Z,85.00
2017-09-27T06:54:46.945Z,84.70
2017-09-27T06:57:13.328Z,84.50
2017-09-27T06:59:39.761Z,84.70
2017-09-27T07:02:06.961Z,84.90
2017-09-27T07:04:33.420Z,84.20
2017-09-27T07:06:59.841Z,84.30
2017-09-27T07:09:26.345Z,84.20
2017-09-27T07:11:52.790Z,84.00
2017-09-27T07:14:19.219Z,83.80
2017-09-27T07:16:45.649Z,82.40
2017-09-27T07:19:12.099Z,78.30
2017-09-27T07:21:38.520Z,78.00
2017-09-27T07:24:04.920Z,75.60
2017-09-27T07:26:32.099Z,74.20
2017-09-27T07:28:58.594Z,74.20
2017-09-27T07:31:25.003Z,73.40
2017-09-27T07:33:51.413Z,73.00
2017-09-27T07:36:17.844Z,74.20
2017-09-27T07:38:44.296Z,69.40
2017-09-27T07:41:10.765Z,70.40
2017-09-27T07:43:37.928Z,69.40
2017-09-27T07:46:05.085Z,69.00
2017-09-27T07:48:31.536Z,68.90
2017-09-27T07:50:58.076Z,66.20
2017-09-27T07:53:24.536Z,66.10
2017-09-27T07:55:50.964Z,64.20
2017-09-27T07:58:17.364Z,62.50
2017-09-27T08:00:43.811Z,62.80
2017-09-27T08:03:10.278Z,60.40
2017-09-27T08:05:36.692Z,59.50
2017-09-27T08:08:03.180Z,59.40
2017-09-27T08:10:30.326Z,56.40
2017-09-27T08:12:57.508Z,55.60
2017-09-27T08:15:23.930Z,55.60
2017-09-27T08:17:50.449Z,55.10
2017-09-27T08:20:17.637Z,54.30
2017-09-27T08:22:44.078Z,54.30
2017-09-27T08:25:10.522Z,53.30
2017-09-27T08:27:36.951Z,53.00
2017-09-27T08:30:03.360Z,52.90
2017-09-27T08:32:29.830Z,52.20
2017-09-27T08:34:56.233Z,51.60
2017-09-27T08:37:22.696Z,50.70
2017-09-27T08:39:49.121Z,51.30
2017-09-27T08:42:15.540Z,51.40
2017-09-27T08:44:42.006Z,49.40
2017-09-27T08:47:08.399Z,48.20
2017-09-27T08:49:34.804Z,47.00
2017-09-27T08:52:01.220Z,45.90
2017-09-27T08:54:27.640Z,46.30
2017-09-27T08:56:54.831Z,44.90
2017-09-27T08:59:21.276Z,44.80
2017-09-27T09:01:47.700Z,44.50
2017-09-27T09:04:14.114Z,44.10
2017-09-27T09:06:40.529Z,44.20
2017-09-27T09:09:06.998Z,44.50
2017-09-27T09:11:33.445Z,42.40
2017-09-27T09:13:59.850Z,43.60
2017-09-27T09:16:26.359Z,43.80
2017-09-27T09:18:53.508Z,43.70
2017-09-27T09:21:20.687Z,43.80
2017-09-27T09:23:47.105Z,43.60
2017-09-27T09:26:14.261Z,45.10
2017-09-27T09:28:40.689Z,45.10
2017-09-27T09:31:07.116Z,44.80
2017-09-27T09:33:33.567Z,44.70
2017-09-27T09:36:00.001Z,44.50
2017-09-27T09:38:26.477Z,43.50
2017-09-27T09:40:52.928Z,42.70
2017-09-27T09:43:19.386Z,41.50
2017-09-27T09:45:45.810Z,41.20
2017-09-27T09:48:12.260Z,40.70
2017-09-27T09:50:38.703Z,38.70
2017-09-27T09:53:05.133Z,39.10
2017-09-27T09:55:31.545Z,37.30
2017-09-27T09:57:58.717Z,38.50
2017-09-27T10:00:25.134Z,38.30
2017-09-27T10:02:51.577Z,40.10
2017-09-27T10:05:18.062Z,39.60
2017-09-27T10:07:44.530Z,39.10
2017-09-27T10:10:10.929Z,36.10
2017-09-27T10:12:37.425Z,34.50
2017-09-27T10:15:03.897Z,34.70
2017-09-27T10:17:30.355Z,34.70
2017-09-27T10:19:56.813Z,35.40
2017-09-27T10:22:23.288Z,36.40
2017-09-27T10:24:49.704Z,37.00
2017-09-27T10:27:16.186Z,37.30
2017-09-27T10:29:43.369Z,37.70
2017-09-27T10:32:09.786Z,37.70
2017-09-27T10:34:36.222Z,38.70
2017-09-27T10:37:02.621Z,40.20
2017-09-27T10:39:29.126Z,40.30
2017-09-27T10:41:55.545Z,40.30
2017-09-27T10:44:21.969Z,40.30
2017-09-27T10:46:48.417Z,39.70
2017-09-27T10:49:14.841Z,39.00
2017-09-27T10:51:41.262Z,38.50
2017-09-27T10:54:07.757Z,39.10
2017-09-27T10:56:34.912Z,40.20
2017-09-27T10:59:01.343Z,40.20
2017-09-27T11:01:28.501Z,39.10
2017-09-27T11:03:54.934Z,39.00
2017-09-27T11:06:21.385Z,38.50
2017-09-27T11:08:47.809Z,39.30
2017-09-27T11:11:14.236Z,39.90
2017-09-27T11:13:41.433Z,39.40
2017-09-27T11:16:07.848Z,39.40
2017-09-27T11:18:34.270Z,40.20
2017-09-27T11:21:00.709Z,41.50
2017-09-27T11:23:27.153Z,41.70
2017-09-27T11:25:53.581Z,42.10
2017-09-27T11:28:20.045Z,42.60
2017-09-27T11:30:46.478Z,42.10
2017-09-27T11:33:12.950Z,41.80
2017-09-27T11:35:39.459Z,41.90
2017-09-27T11:38:05.901Z,43.00
2017-09-27T11:40:32.341Z,42.80
2017-09-27T11:42:59.516Z,41.80
2017-09-27T11:45:25.990Z,41.70
2017-09-27T11:47:53.213Z,41.50
2017-09-27T11:50:19.621Z,41.40
2017-09-27T11:52:46.089Z,41.30
2017-09-27T11:55:12.519Z,41.60
2017-09-27T11:57:38.977Z,41.70
2017-09-27T12:00:05.436Z,42.60
2017-09-27T12:02:31.895Z,42.60
2017-09-27T12:04:58.338Z,43.00
2017-09-27T12:07:24.797Z,42.80
2017-09-27T12:09:51.210Z,43.20
2017-09-27T12:12:17.613Z,42.90
2017-09-27T12:14:44.066Z,43.70
2017-09-27T12:17:10.488Z,43.60
2017-09-27T12:19:36.914Z,43.70
2017-09-27T12:22:03.331Z,43.60
2017-09-27T12:24:30.534Z,43.30
2017-09-27T12:26:56.953Z,43.30
2017-09-27T12:29:23.356Z,43.10
2017-09-27T12:31:50.585Z,44.80
2017-09-27T12:34:17.004Z,44.70
2017-09-27T12:36:43.480Z,45.30
2017-09-27T12:39:09.944Z,44.50
2017-09-27T12:41:36.370Z,44.10
2017-09-27T12:44:02.818Z,44.90
2017-09-27T12:46:29.282Z,45.50
2017-09-27T12:48:55.721Z,47.10
2017-09-27T12:51:22.194Z,47.60
2017-09-27T12:53:48.637Z,47.30
2017-09-27T12:56:15.117Z,47.40
2017-09-27T12:58:41.625Z,47.80
2017-09-27T13:01:08.082Z,48.00
2017-09-27T13:03:35.270Z,47.30
2017-09-27T13:06:01.751Z,47.30
2017-09-27T13:08:28.244Z,47.10
2017-09-27T13:10:54.653Z,46.70
2017-09-27T13:13:21.858Z,46.60
2017-09-27T13:15:48.299Z,46.90
2017-09-27T13:18:14.778Z,47.30
2017-09-27T13:20:41.263Z,47.30
2017-09-27T13:23:07.706Z,47.90
2017-09-27T13:25:34.141Z,48.70
2017-09-27T13:28:00.605Z,48.30
2017-09-27T13:30:27.743Z,48.20
2017-09-27T13:32:54.918Z,47.60
2017-09-27T13:35:21.361Z,47.60
2017-09-27T13:37:47.802Z,48.30
2017-09-27T13:40:14.208Z,48.10
2017-09-27T13:42:40.653Z,46.80
2017-09-27T13:45:07.065Z,47.10
2017-09-27T13:47:33.558Z,46.70
2017-09-27T13:50:00.014Z,46.50
2017-09-27T13:52:26.462Z,46.30
2017-09-27T13:54:53.657Z,46.30
2017-09-27T13:57:20.099Z,46.30
2017-09-27T13:59:46.517Z,46.40
2017-09-27T14:02:13.049Z,46.30
2017-09-27T14:04:39.448Z,46.40
2017-09-27T14:07:06.600Z,46.40
2017-09-27T14:09:33.795Z,46.30
2017-09-27T14:12:00.218Z,46.30
2017-09-27T14:14:26.627Z,46.00
2017-09-27T14:16:53.107Z,46.20
2017-09-27T14:19:19.532Z,45.90
2017-09-27T14:21:45.941Z,46.10
2017-09-27T14:24:12.390Z,46.20
2017-09-27T14:26:38.784Z,46.90
2017-09-27T14:29:05.218Z,47.10
2017-09-27T14:31:32.418Z,47.40
2017-09-27T14:33:58.843Z,47.40
2017-09-27T14:36:25.269Z,46.90
2017-09-27T14:38:51.688Z,47.30
2017-09-27T14:41:18.113Z,47.40
2017-09-27T14:43:44.602Z,47.50
2017-09-27T14:46:11.765Z,47.70
2017-09-27T14:48:38.249Z,47.60
2017-09-27T14:51:04.688Z,47.80
2017-09-27T14:53:31.175Z,47.70
2017-09-27T14:55:57.604Z,48.00
2017-09-27T14:58:24.838Z,48.10
2017-09-27T15:00:52.029Z,47.60
2017-09-27T15:03:18.474Z,47.60
2017-09-27T15:05:44.932Z,47.60
2017-09-27T15:08:11.347Z,47.50
2017-09-27T15:10:37.795Z,47.30
2017-09-27T15:13:04.232Z,47.70
2017-09-27T15:15:30.709Z,47.80
2017-09-27T15:17:57.886Z,47.40
2017-09-27T15:20:24.349Z,47.40
2017-09-27T15:22:51.494Z,47.90
2017-09-27T15:25:17.933Z,47.80
2017-09-27T15:27:44.383Z,48.20
2017-09-27T15:30:10.835Z,48.20
2017-09-27T15:32:37.265Z,48.10
2017-09-27T15:35:04.459Z,48.10
2017-09-27T15:37:30.894Z,48.10
2017-09-27T15:39:58.081Z,47.70
2017-09-27T15:42:24.578Z,47.70
2017-09-27T15:44:51.038Z,47.90
2017-09-27T15:47:17.487Z,48.10
2017-09-27T15:49:44.703Z,48.90
2017-09-27T15:52:11.103Z,48.90
2017-09-27T15:54:37.574Z,49.20
2017-09-27T15:57:04.021Z,49.20
2017-09-27T15:59:30.563Z,49.00
2017-09-27T16:01:57.022Z,49.10
2017-09-27T16:04:23.460Z,49.70
2017-09-27T16:06:50.656Z,49.40
2017-09-27T16:09:17.089Z,49.40
2017-09-27T16:11:43.505Z,50.00
2017-09-27T16:14:09.953Z,50.40
2017-09-27T16:16:36.381Z,50.50
2017-09-27T16:19:02.834Z,50.50
2017-09-27T16:21:29.282Z,50.30
2017-09-27T16:23:55.750Z,50.50
2017-09-27T16:26:22.923Z,50.80
2017-09-27T16:28:49.397Z,50.80
2017-09-27T16:31:15.857Z,51.10
2017-09-27T16:33:43.021Z,51.60
2017-09-27T16:36:09.513Z,51.60
2017-09-27T16:38:36.678Z,51.60
2017-09-27T16:41:03.884Z,51.80
2017-09-27T16:43:30.345Z,52.40
2017-09-27T16:45:56.807Z,52.10
2017-09-27T16:48:23.986Z,52.30
2017-09-27T16:50:50.397Z,52.30
2017-09-27T16:53:16.881Z,52.60
2017-09-27T16:55:43.298Z,52.70
2017-09-27T16:58:09.777Z,53.10
2017-09-27T17:00:36.993Z,53.70
2017-09-27T17:03:03.446Z,53.70
2017-09-27T17:05:29.910Z,53.80
2017-09-27T17:07:56.345Z,54.80
2017-09-27T17:10:22.828Z,56.50
2017-09-27T17:12:49.297Z,56.90
2017-09-27T17:15:16.448Z,58.10
2017-09-27T17:17:42.892Z,58.00
2017-09-27T17:20:10.049Z,58.50
2017-09-27T17:22:36.461Z,58.50
2017-09-27T17:25:03.692Z,60.60
2017-09-27T17:27:30.178Z,60.50
2017-09-27T17:29:56.646Z,61.70
2017-09-27T17:32:23.077Z,62.60
2017-09-27T17:34:50.412Z,62.90
2017-09-27T17:37:16.894Z,62.70
2017-09-27T17:39:43.352Z,63.40
2017-09-27T17:42:09.834Z,62.80
2017-09-27T17:44:36.291Z,62.40
2017-09-27T17:47:02.714Z,62.50
2017-09-27T17:49:29.192Z,61.90
2017-09-27T17:51:55.635Z,62.70
2017-09-27T17:54:22.133Z,63.40
2017-09-27T17:56:49.325Z,63.80
2017-09-27T17:59:15.750Z,63.70
2017-09-27T18:01:42.258Z,63.40
2017-09-27T18:04:10.330Z,65.40
2017-09-27T18:06:41.807Z,64.60
2017-09-27T18:09:13.247Z,64.90
2017-09-27T18:11:45.882Z,66.30
2017-09-27T18:27:30.886Z,69.80
2017-09-27T18:29:57.336Z,69.80
2017-09-27T18:32:23.849Z,70.30
2017-09-27T18:34:50.318Z,69.90
2017-09-27T18:37:16.754Z,69.00
2017-09-27T18:39:43.204Z,70.90
2017-09-27T18:42:09.642Z,71.50
2017-09-27T18:44:36.107Z,72.30
2017-09-27T18:47:02.563Z,72.70
2017-09-27T18:49:29.018Z,73.00
2017-09-27T18:51:55.594Z,72.80
2017-09-27T18:54:22.809Z,72.30
2017-09-27T18:56:49.270Z,72.20
2017-09-27T18:59:16.545Z,72.30
2017-09-27T19:01:42.989Z,72.10
2017-09-27T19:04:09.433Z,72.50
2017-09-27T19:06:35.907Z,72.90
2017-09-27T19:09:03.196Z,73.30
2017-09-27T19:11:30.494Z,73.20
2017-09-27T19:13:56.934Z,73.20
2017-09-27T19:16:23.404Z,73.50
2017-09-27T19:18:50.680Z,74.30
2017-09-27T19:21:17.143Z,74.20
2017-09-27T19:23:43.614Z,74.50
2017-09-27T19:26:10.833Z,74.10
2017-09-27T19:28:37.394Z,74.00
2017-09-27T19:31:03.817Z,74.30
2017-09-27T19:33:30.246Z,74.40
2017-09-27T19:35:56.687Z,74.90
2017-09-27T19:38:23.911Z,74.40
2017-09-27T19:40:50.356Z,74.30
2017-09-27T19:43:16.818Z,75.10
2017-09-27T19:45:43.964Z,75.60
2017-09-27T19:48:11.152Z,75.30
2017-09-27T19:50:37.698Z,75.30
2017-09-27T19:53:04.132Z,75.10
2017-09-27T19:55:30.581Z,74.70
2017-09-27T19:57:57.084Z,73.40
2017-09-27T20:00:23.547Z,72.40
2017-09-27T20:02:50.041Z,71.80
2017-09-27T20:05:16.519Z,71.40
2017-09-27T20:07:43.002Z,71.20
2017-09-27T20:10:09.533Z,71.50
2017-09-27T20:12:36.012Z,72.40
2017-09-27T20:15:02.550Z,72.50
2017-09-27T20:17:29.001Z,72.70
2017-09-27T20:19:55.430Z,72.30
2017-09-27T20:22:21.902Z,73.30
2017-09-27T20:24:49.169Z,72.80
2017-09-27T20:27:15.597Z,72.80
2017-09-27T20:29:42.045Z,72.70
2017-09-27T20:32:08.498Z,72.50
2017-09-27T20:34:35.938Z,72.70
2017-09-27T20:37:02.444Z,72.60
2017-09-27T20:39:28.927Z,72.90
2017-09-27T20:41:55.359Z,72.90
2017-09-27T20:44:21.799Z,73.10
2017-09-27T20:46:48.228Z,73.10
2017-09-27T20:49:14.733Z,73.40
2017-09-27T20:51:41.226Z,74.60
2017-09-27T20:54:08.390Z,73.90
2017-09-27T20:56:34.870Z,73.80
2017-09-27T20:59:01.437Z,74.20
2017-09-27T21:01:27.954Z,75.00
2017-09-27T21:03:54.429Z,75.30
2017-09-27T21:06:21.566Z,76.60
2017-09-27T21:08:48.070Z,76.10
2017-09-27T21:11:14.521Z,76.30
2017-09-27T21:13:40.927Z,76.50
2017-09-27T21:16:07.438Z,75.10
2017-09-27T21:18:33.891Z,74.10
2017-09-27T21:21:00.345Z,73.40
2017-09-27T21:23:26.790Z,73.00
2017-09-27T21:25:53.224Z,72.90
2017-09-27T21:28:19.802Z,73.30
2017-09-27T21:30:46.309Z,73.60
2017-09-27T21:33:13.462Z,72.70
2017-09-27T21:35:39.926Z,72.70
2017-09-27T21:38:06.374Z,72.40
2017-09-27T21:40:32.826Z,72.70
2017-09-27T21:42:59.332Z,72.30
2017-09-27T21:45:25.785Z,72.40
2017-09-27T21:47:53.014Z,72.60
2017-09-27T21:50:19.435Z,72.60
2017-09-27T21:52:45.910Z,72.40
2017-09-27T21:55:12.376Z,72.20
2017-09-27T21:57:39.533Z,72.90
2017-09-27T22:00:06.730Z,72.80
2017-09-27T22:02:33.198Z,72.80
2017-09-27T22:05:00.373Z,73.20
2017-09-27T22:07:26.830Z,73.00
2017-09-27T22:09:53.285Z,72.80
2017-09-27T22:12:19.711Z,73.00
2017-09-27T22:14:46.149Z,72.80
2017-09-27T22:17:12.597Z,72.70
2017-09-27T22:19:39.800Z,72.80
2017-09-27T22:22:06.246Z,72.70
2017-09-27T22:24:32.666Z,72.70
2017-09-27T22:26:59.128Z,72.80
2017-09-27T22:29:25.568Z,72.60
2017-09-27T22:31:52.877Z,73.00
2017-09-27T22:34:19.324Z,74.00
2017-09-27T22:36:45.735Z,76.40
2017-09-27T22:39:12.194Z,77.80
2017-09-27T22:41:38.601Z,79.00
2017-09-27T22:44:05.821Z,80.20
2017-09-27T22:46:33.014Z,81.00
2017-09-27T22:48:59.450Z,80.90
2017-09-27T22:51:25.938Z,81.20
2017-09-27T22:53:53.164Z,82.10
2017-09-27T22:56:19.622Z,82.20
2017-09-27T22:58:46.057Z,81.30
2017-09-27T23:01:12.481Z,81.40
2017-09-27T23:03:38.886Z,81.60
2017-09-27T23:06:05.328Z,81.50
2017-09-27T23:08:31.790Z,81.90
2017-09-27T23:10:58.265Z,82.20
2017-09-27T23:13:24.750Z,83.00
2017-09-27T23:15:51.230Z,82.80
2017-09-27T23:18:17.665Z,82.80
2017-09-27T23:20:44.113Z,82.80
2017-09-27T23:23:10.524Z,82.80
2017-09-27T23:25:36.952Z,82.50
2017-09-27T23:28:03.422Z,81.00
2017-09-27T23:30:29.868Z,79.30
2017-09-27T23:32:56.288Z,77.90
2017-09-27T23:35:22.762Z,77.50
2017-09-27T23:37:49.970Z,77.80
2017-09-27T23:40:16.437Z,77.30
2017-09-27T23:42:42.847Z,78.00
2017-09-27T23:45:09.324Z,78.20
2017-09-27T23:47:36.474Z,78.40
2017-09-27T23:50:03.613Z,78.00
2017-09-27T23:52:30.821Z,77.50
2017-09-27T23:54:57.245Z,77.40
2017-09-27T23:57:23.728Z,77.70
2017-09-27T23:59:50.918Z,77.20
